Terminal Aerodrome Forecast
Issued by NWS

Home | Current Version | Previous Version | Text Only | Print | Product List | Glossary On
Versions: 1 2 3 4 5 6 7 8 9 10 11 12 13 14 15 16 17 18 19 20
000
FTUS44 KTSA 211128
TAFFYV
TAF
KFYV 211128Z 2112/2212 36010KT P6SM OVC007
     FM211800 04008KT P6SM OVC015
     FM220000 04005KT 5SM BR OVC008
      TEMPO 2200/2204 4SM -RA OVC005=

USA.gov is the U.S. government's official web portal to all federal, state and local government web resources and services.